sensor_id;sensor_type;location;lat;lon;timestamp;pressure;altitude;pressure_sealevel;temperature;humidity
59063;BME280;44851;45.648;9.004;2023-01-19T00:01:54;97321.25;;;1.81;71.58
59063;BME280;44851;45.648;9.004;2023-01-19T00:04:19;97313.50;;;1.92;72.29
59063;BME280;44851;45.648;9.004;2023-01-19T00:06:45;97312.22;;;2.08;72.16
59063;BME280;44851;45.648;9.004;2023-01-19T00:09:10;97318.22;;;2.18;72.17
59063;BME280;44851;45.648;9.004;2023-01-19T00:11:36;97308.16;;;2.05;71.95
59063;BME280;44851;45.648;9.004;2023-01-19T00:14:01;97312.72;;;2.02;72.37
59063;BME280;44851;45.648;9.004;2023-01-19T00:16:27;97296.13;;;2.06;72.56
59063;BME280;44851;45.648;9.004;2023-01-19T00:18:52;97293.03;;;2.12;72.50
59063;BME280;44851;45.648;9.004;2023-01-19T00:21:18;97290.84;;;2.07;72.28
59063;BME280;44851;45.648;9.004;2023-01-19T00:23:44;97276.00;;;2.11;71.81
59063;BME280;44851;45.648;9.004;2023-01-19T00:26:14;97269.75;;;2.04;72.20
59063;BME280;44851;45.648;9.004;2023-01-19T00:28:40;97283.50;;;2.03;72.31
59063;BME280;44851;45.648;9.004;2023-01-19T00:31:06;97291.94;;;2.05;72.22
59063;BME280;44851;45.648;9.004;2023-01-19T00:33:31;97304.41;;;2.09;73.17
59063;BME280;44851;45.648;9.004;2023-01-19T00:35:57;97304.34;;;2.00;73.21
59063;BME280;44851;45.648;9.004;2023-01-19T00:38:22;97306.72;;;1.91;73.10
59063;BME280;44851;45.648;9.004;2023-01-19T00:40:49;97298.34;;;1.89;73.35
59063;BME280;44851;45.648;9.004;2023-01-19T00:43:14;97282.69;;;2.02;73.32
59063;BME280;44851;45.648;9.004;2023-01-19T00:45:40;97277.47;;;2.04;72.49
59063;BME280;44851;45.648;9.004;2023-01-19T00:48:06;97277.47;;;2.13;71.93
59063;BME280;44851;45.648;9.004;2023-01-19T00:50:32;97274.63;;;2.07;72.19
59063;BME280;44851;45.648;9.004;2023-01-19T00:52:58;97279.88;;;2.05;72.48
59063;BME280;44851;45.648;9.004;2023-01-19T00:55:30;97291.13;;;2.04;72.34
59063;BME280;44851;45.648;9.004;2023-01-19T00:57:56;97305.97;;;2.01;73.13
59063;BME280;44851;45.648;9.004;2023-01-19T01:00:22;97302.72;;;1.99;73.42
59063;BME280;44851;45.648;9.004;2023-01-19T01:02:50;97300.25;;;1.97;73.49
59063;BME280;44851;45.648;9.004;2023-01-19T01:05:16;97300.81;;;2.01;73.38
59063;BME280;44851;45.648;9.004;2023-01-19T01:07:42;97295.81;;;1.99;73.04
59063;BME280;44851;45.648;9.004;2023-01-19T01:10:19;97293.53;;;2.06;73.03
59063;BME280;44851;45.648;9.004;2023-01-19T01:12:45;97297.59;;;1.99;73.42
59063;BME280;44851;45.648;9.004;2023-01-19T01:15:13;97303.78;;;1.96;72.97
59063;BME280;44851;45.648;9.004;2023-01-19T01:17:39;97304.84;;;1.93;72.83
59063;BME280;44851;45.648;9.004;2023-01-19T01:20:20;97289.44;;;1.93;73.68
59063;BME280;44851;45.648;9.004;2023-01-19T01:22:49;97294.88;;;2.00;73.72
59063;BME280;44851;45.648;9.004;2023-01-19T01:25:16;97297.75;;;2.07;73.82
59063;BME280;44851;45.648;9.004;2023-01-19T01:27:43;97293.78;;;2.03;74.14
59063;BME280;44851;45.648;9.004;2023-01-19T01:30:12;97306.16;;;2.09;73.12
59063;BME280;44851;45.648;9.004;2023-01-19T01:32:38;97295.88;;;2.09;73.93
59063;BME280;44851;45.648;9.004;2023-01-19T01:35:04;97296.78;;;2.08;74.13
59063;BME280;44851;45.648;9.004;2023-01-19T01:37:30;97293.69;;;2.04;73.74
59063;BME280;44851;45.648;9.004;2023-01-19T01:39:56;97292.97;;;2.02;73.68
59063;BME280;44851;45.648;9.004;2023-01-19T01:42:26;97293.78;;;2.03;73.27
59063;BME280;44851;45.648;9.004;2023-01-19T01:44:54;97290.59;;;2.10;73.37
59063;BME280;44851;45.648;9.004;2023-01-19T01:47:26;97297.22;;;2.13;73.36
59063;BME280;44851;45.648;9.004;2023-01-19T01:49:59;97292.34;;;2.10;73.18
59063;BME280;44851;45.648;9.004;2023-01-19T01:52:28;97291.66;;;2.08;73.91
59063;BME280;44851;45.648;9.004;2023-01-19T01:54:57;97294.63;;;2.03;74.18
59063;BME280;44851;45.648;9.004;2023-01-19T01:57:23;97296.13;;;2.06;73.62
59063;BME280;44851;45.648;9.004;2023-01-19T01:59:53;97297.38;;;2.11;74.23
59063;BME280;44851;45.648;9.004;2023-01-19T02:02:22;97295.88;;;2.09;72.75
59063;BME280;44851;45.648;9.004;2023-01-19T02:05:15;97306.22;;;1.97;72.61
59063;BME280;44851;45.648;9.004;2023-01-19T02:10:46;97295.16;;;2.07;74.20
59063;BME280;44851;45.648;9.004;2023-01-19T02:13:33;97293.78;;;2.03;74.07
59063;BME280;44851;45.648;9.004;2023-01-19T02:16:06;97288.50;;;1.94;74.05
59063;BME280;44851;45.648;9.004;2023-01-19T02:18:32;97284.97;;;1.95;73.50
59063;BME280;44851;45.648;9.004;2023-01-19T02:26:07;97277.13;;;1.97;73.61
59063;BME280;44851;45.648;9.004;2023-01-19T02:28:36;97277.53;;;1.92;74.19
59063;BME280;44851;45.648;9.004;2023-01-19T02:31:03;97271.56;;;1.92;73.56
59063;BME280;44851;45.648;9.004;2023-01-19T02:33:29;97269.13;;;1.90;74.06
59063;BME280;44851;45.648;9.004;2023-01-19T02:35:55;97260.47;;;1.91;74.00
59063;BME280;44851;45.648;9.004;2023-01-19T02:38:24;97266.41;;;1.92;74.15
59063;BME280;44851;45.648;9.004;2023-01-19T02:40:53;97266.41;;;1.92;74.37
59063;BME280;44851;45.648;9.004;2023-01-19T02:43:19;97273.59;;;1.88;73.76
59063;BME280;44851;45.648;9.004;2023-01-19T02:45:45;97274.53;;;1.87;74.11
59063;BME280;44851;45.648;9.004;2023-01-19T02:48:13;97281.28;;;1.88;73.89
59063;BME280;44851;45.648;9.004;2023-01-19T02:50:42;97281.69;;;1.84;73.32
59063;BME280;44851;45.648;9.004;2023-01-19T02:59:25;97293.78;;;1.72;72.69
59063;BME280;44851;45.648;9.004;2023-01-19T03:04:58;97284.47;;;1.81;74.11
59063;BME280;44851;45.648;9.004;2023-01-19T03:07:48;97286.13;;;1.82;74.48
59063;BME280;44851;45.648;9.004;2023-01-19T03:18:31;97274.22;;;1.81;73.37
59063;BME280;44851;45.648;9.004;2023-01-19T03:21:00;97267.75;;;1.86;73.96
59063;BME280;44851;45.648;9.004;2023-01-19T03:23:30;97274.22;;;1.81;73.63
59063;BME280;44851;45.648;9.004;2023-01-19T03:25:58;97280.66;;;1.75;73.44
59063;BME280;44851;45.648;9.004;2023-01-19T03:28:27;97274.66;;;1.65;73.29
59063;BME280;44851;45.648;9.004;2023-01-19T03:31:07;97274.28;;;1.69;73.20
59063;BME280;44851;45.648;9.004;2023-01-19T03:33:37;97278.28;;;1.83;74.67
59063;BME280;44851;45.648;9.004;2023-01-19T03:36:11;97275.16;;;1.80;73.20
59063;BME280;44851;45.648;9.004;2023-01-19T03:38:40;97273.91;;;1.74;73.58
59063;BME280;44851;45.648;9.004;2023-01-19T03:41:13;97270.72;;;1.82;74.39
59063;BME280;44851;45.648;9.004;2023-01-19T03:43:41;97269.63;;;1.84;74.27
59063;BME280;44851;45.648;9.004;2023-01-19T03:46:08;97272.72;;;1.78;74.42
59063;BME280;44851;45.648;9.004;2023-01-19T03:48:35;97271.25;;;1.85;73.88
59063;BME280;44851;45.648;9.004;2023-01-19T03:51:04;97278.06;;;1.96;74.18
59063;BME280;44851;45.648;9.004;2023-01-19T03:53:31;97269.63;;;1.84;73.37
59063;BME280;44851;45.648;9.004;2023-01-19T03:55:57;97275.66;;;1.74;74.33
59063;BME280;44851;45.648;9.004;2023-01-19T03:58:22;97282.91;;;1.89;74.23
59063;BME280;44851;45.648;9.004;2023-01-19T04:00:48;97289.69;;;1.90;73.53
59063;BME280;44851;45.648;9.004;2023-01-19T04:03:14;97301.34;;;1.94;74.03
59063;BME280;44851;45.648;9.004;2023-01-19T04:05:40;97298.91;;;1.72;73.98
59063;BME280;44851;45.648;9.004;2023-01-19T04:08:06;97301.28;;;1.64;74.41
59063;BME280;44851;45.648;9.004;2023-01-19T04:10:31;97304.72;;;1.74;74.33
59063;BME280;44851;45.648;9.004;2023-01-19T04:12:58;97311.38;;;1.56;74.17
59063;BME280;44851;45.648;9.004;2023-01-19T04:15:24;97310.94;;;1.72;74.90
59063;BME280;44851;45.648;9.004;2023-01-19T04:17:50;97315.00;;;1.74;75.13
59063;BME280;44851;45.648;9.004;2023-01-19T04:20:15;97312.81;;;1.69;73.94
59063;BME280;44851;45.648;9.004;2023-01-19T04:22:41;97311.94;;;1.80;74.80
59063;BME280;44851;45.648;9.004;2023-01-19T04:25:07;97317.50;;;1.85;75.15
59063;BME280;44851;45.648;9.004;2023-01-19T04:27:34;97324.78;;;1.80;74.47
59063;BME280;44851;45.648;9.004;2023-01-19T04:29:59;97312.25;;;1.87;74.46
59063;BME280;44851;45.648;9.004;2023-01-19T04:32:25;97321.31;;;1.91;74.34
59063;BME280;44851;45.648;9.004;2023-01-19T04:34:50;97318.06;;;1.89;74.68
59063;BME280;44851;45.648;9.004;2023-01-19T04:37:16;97322.91;;;1.82;74.10
59063;BME280;44851;45.648;9.004;2023-01-19T04:39:42;97329.47;;;1.96;74.52
59063;BME280;44851;45.648;9.004;2023-01-19T04:42:07;97327.16;;;1.93;74.26
59063;BME280;44851;45.648;9.004;2023-01-19T04:44:33;97333.56;;;1.99;74.88
59063;BME280;44851;45.648;9.004;2023-01-19T04:46:58;97329.84;;;1.91;74.83
59063;BME280;44851;45.648;9.004;2023-01-19T04:49:24;97330.53;;;1.93;74.84
59063;BME280;44851;45.648;9.004;2023-01-19T04:51:52;97328.41;;;1.99;74.73
59063;BME280;44851;45.648;9.004;2023-01-19T04:54:18;97338.19;;;2.05;74.79
59063;BME280;44851;45.648;9.004;2023-01-19T04:56:43;97340.81;;;1.93;74.05
59063;BME280;44851;45.648;9.004;2023-01-19T04:59:08;97339.19;;;1.92;74.33
59063;BME280;44851;45.648;9.004;2023-01-19T05:01:34;97339.44;;;1.89;73.96
59063;BME280;44851;45.648;9.004;2023-01-19T05:04:00;97341.06;;;1.90;75.10
59063;BME280;44851;45.648;9.004;2023-01-19T05:06:26;97346.69;;;1.84;75.28
59063;BME280;44851;45.648;9.004;2023-01-19T05:08:51;97348.16;;;1.98;75.04
59063;BME280;44851;45.648;9.004;2023-01-19T05:11:17;97352.72;;;1.94;75.05
59063;BME280;44851;45.648;9.004;2023-01-19T05:13:42;97356.78;;;1.97;75.08
59063;BME280;44851;45.648;9.004;2023-01-19T05:16:07;97357.94;;;1.83;74.21
59063;BME280;44851;45.648;9.004;2023-01-19T05:18:33;97374.81;;;1.86;74.85
59063;BME280;44851;45.648;9.004;2023-01-19T05:21:02;97376.28;;;2.00;75.10
59063;BME280;44851;45.648;9.004;2023-01-19T05:23:28;97377.47;;;1.95;74.98
59063;BME280;44851;45.648;9.004;2023-01-19T05:25:55;97379.00;;;1.98;74.58
59063;BME280;44851;45.648;9.004;2023-01-19T05:28:21;97375.97;;;1.93;75.08
59063;BME280;44851;45.648;9.004;2023-01-19T05:30:48;97377.03;;;1.90;74.75
59063;BME280;44851;45.648;9.004;2023-01-19T05:33:13;97373.94;;;1.96;75.09
59063;BME280;44851;45.648;9.004;2023-01-19T05:35:39;97375.16;;;1.92;75.03
59063;BME280;44851;45.648;9.004;2023-01-19T05:38:05;97372.78;;;2.01;74.97
59063;BME280;44851;45.648;9.004;2023-01-19T05:40:31;97371.88;;;1.90;75.19
59063;BME280;44851;45.648;9.004;2023-01-19T05:42:56;97376.78;;;1.93;75.42
59063;BME280;44851;45.648;9.004;2023-01-19T05:45:27;97376.59;;;1.85;74.91
59063;BME280;44851;45.648;9.004;2023-01-19T05:47:53;97382.38;;;1.99;74.72
59063;BME280;44851;45.648;9.004;2023-01-19T05:50:19;97386.25;;;1.93;74.53
59063;BME280;44851;45.648;9.004;2023-01-19T05:52:44;97370.56;;;1.96;74.57
59063;BME280;44851;45.648;9.004;2023-01-19T05:55:10;97374.00;;;1.85;74.47
59063;BME280;44851;45.648;9.004;2023-01-19T05:57:35;97377.28;;;1.87;75.12
59063;BME280;44851;45.648;9.004;2023-01-19T06:00:02;97380.31;;;1.92;75.00
59063;BME280;44851;45.648;9.004;2023-01-19T06:02:28;97377.03;;;1.90;74.66
59063;BME280;44851;45.648;9.004;2023-01-19T06:04:54;97387.81;;;1.84;74.58
59063;BME280;44851;45.648;9.004;2023-01-19T06:07:20;97384.78;;;1.79;74.37
59063;BME280;44851;45.648;9.004;2023-01-19T06:09:45;97377.09;;;1.79;75.53
59063;BME280;44851;45.648;9.004;2023-01-19T06:12:11;97378.53;;;1.72;75.19
59063;BME280;44851;45.648;9.004;2023-01-19T06:14:36;97389.94;;;1.79;75.13
59063;BME280;44851;45.648;9.004;2023-01-19T06:17:03;97402.28;;;1.85;75.33
59063;BME280;44851;45.648;9.004;2023-01-19T06:19:30;97408.16;;;1.76;74.83
59063;BME280;44851;45.648;9.004;2023-01-19T06:21:56;97401.31;;;1.86;74.98
59063;BME280;44851;45.648;9.004;2023-01-19T06:24:22;97404.03;;;1.85;74.66
59063;BME280;44851;45.648;9.004;2023-01-19T06:26:48;97400.50;;;1.86;75.07
59063;BME280;44851;45.648;9.004;2023-01-19T06:29:13;97397.56;;;1.90;75.17
59063;BME280;44851;45.648;9.004;2023-01-19T06:31:39;97403.91;;;1.86;74.67
59063;BME280;44851;45.648;9.004;2023-01-19T06:34:06;97408.13;;;1.87;75.27
59063;BME280;44851;45.648;9.004;2023-01-19T06:36:31;97414.44;;;1.83;74.90
59063;BME280;44851;45.648;9.004;2023-01-19T06:38:56;97403.91;;;1.86;74.37
59063;BME280;44851;45.648;9.004;2023-01-19T06:41:22;97410.25;;;1.82;74.06
59063;BME280;44851;45.648;9.004;2023-01-19T06:43:47;97411.38;;;1.89;74.52
59063;BME280;44851;45.648;9.004;2023-01-19T06:46:13;97413.50;;;1.84;74.32
59063;BME280;44851;45.648;9.004;2023-01-19T06:48:38;97416.06;;;1.84;74.64
59063;BME280;44851;45.648;9.004;2023-01-19T06:51:04;97421.88;;;1.86;74.53
59063;BME280;44851;45.648;9.004;2023-01-19T06:53:31;97424.72;;;1.83;74.26
59063;BME280;44851;45.648;9.004;2023-01-19T06:55:58;97427.28;;;1.83;74.22
59063;BME280;44851;45.648;9.004;2023-01-19T06:58:24;97424.84;;;1.82;74.45
59063;BME280;44851;45.648;9.004;2023-01-19T07:00:50;97426.19;;;1.86;74.93
59063;BME280;44851;45.648;9.004;2023-01-19T07:03:19;97429.53;;;1.77;74.33
59063;BME280;44851;45.648;9.004;2023-01-19T07:05:45;97445.03;;;1.75;74.63
59063;BME280;44851;45.648;9.004;2023-01-19T07:08:10;97452.78;;;1.64;74.26
59063;BME280;44851;45.648;9.004;2023-01-19T07:10:35;97466.13;;;1.58;75.09
59063;BME280;44851;45.648;9.004;2023-01-19T07:13:01;97474.41;;;1.61;75.38
59063;BME280;44851;45.648;9.004;2023-01-19T07:15:27;97478.69;;;1.72;74.96
59063;BME280;44851;45.648;9.004;2023-01-19T07:17:52;97480.34;;;1.62;74.98
59063;BME280;44851;45.648;9.004;2023-01-19T07:20:17;97478.81;;;1.59;75.44
59063;BME280;44851;45.648;9.004;2023-01-19T07:22:43;97482.88;;;1.73;75.67
59063;BME280;44851;45.648;9.004;2023-01-19T07:25:11;97486.63;;;1.69;75.63
59063;BME280;44851;45.648;9.004;2023-01-19T07:27:36;97486.94;;;1.76;75.44
59063;BME280;44851;45.648;9.004;2023-01-19T07:30:02;97496.50;;;1.85;75.88
59063;BME280;44851;45.648;9.004;2023-01-19T07:32:29;97500.34;;;1.90;75.65
59063;BME280;44851;45.648;9.004;2023-01-19T07:34:54;97497.59;;;1.82;75.54
59063;BME280;44851;45.648;9.004;2023-01-19T07:37:20;97509.00;;;1.89;76.04
59063;BME280;44851;45.648;9.004;2023-01-19T07:39:45;97519.28;;;1.89;76.00
59063;BME280;44851;45.648;9.004;2023-01-19T07:42:10;97520.91;;;1.90;75.79
59063;BME280;44851;45.648;9.004;2023-01-19T07:44:37;97528.09;;;1.96;75.74
59063;BME280;44851;45.648;9.004;2023-01-19T07:47:02;97532.78;;;1.91;76.07
59063;BME280;44851;45.648;9.004;2023-01-19T07:49:31;97541.00;;;1.85;75.00
59063;BME280;44851;45.648;9.004;2023-01-19T07:51:57;97534.44;;;1.92;76.35
59063;BME280;44851;45.648;9.004;2023-01-19T07:54:22;97529.22;;;1.83;75.68
59063;BME280;44851;45.648;9.004;2023-01-19T07:56:47;97541.69;;;1.87;75.90
59063;BME280;44851;45.648;9.004;2023-01-19T07:59:13;97548.78;;;1.95;75.13
59063;BME280;44851;45.648;9.004;2023-01-19T08:01:38;97551.59;;;1.92;75.26
59063;BME280;44851;45.648;9.004;2023-01-19T08:04:04;97562.66;;;2.15;73.54
59063;BME280;44851;45.648;9.004;2023-01-19T08:06:34;97567.88;;;2.13;73.03
59063;BME280;44851;45.648;9.004;2023-01-19T08:09:01;97576.66;;;2.11;71.73
59063;BME280;44851;45.648;9.004;2023-01-19T08:11:29;97588.59;;;2.01;70.94
59063;BME280;44851;45.648;9.004;2023-01-19T08:13:55;97589.56;;;2.00;70.60
59063;BME280;44851;45.648;9.004;2023-01-19T08:16:20;97596.53;;;2.09;70.18
59063;BME280;44851;45.648;9.004;2023-01-19T08:18:46;97605.47;;;1.82;70.03
59063;BME280;44851;45.648;9.004;2023-01-19T08:21:11;97613.88;;;1.84;69.61
59063;BME280;44851;45.648;9.004;2023-01-19T08:23:37;97623.44;;;1.93;70.69
59063;BME280;44851;45.648;9.004;2023-01-19T08:26:20;97631.72;;;1.86;70.19
59063;BME280;44851;45.648;9.004;2023-01-19T08:28:48;97638.50;;;1.87;71.50
59063;BME280;44851;45.648;9.004;2023-01-19T08:31:13;97635.22;;;1.85;70.88
59063;BME280;44851;45.648;9.004;2023-01-19T08:33:39;97647.03;;;1.99;71.39
59063;BME280;44851;45.648;9.004;2023-01-19T08:36:06;97650.78;;;1.72;72.38
59063;BME280;44851;45.648;9.004;2023-01-19T08:38:31;97663.16;;;1.67;72.83
59063;BME280;44851;45.648;9.004;2023-01-19T08:40:57;97671.31;;;1.72;72.42
59063;BME280;44851;45.648;9.004;2023-01-19T08:43:22;97673.16;;;1.70;72.41
59063;BME280;44851;45.648;9.004;2023-01-19T08:45:52;97674.56;;;1.63;72.30
59063;BME280;44851;45.648;9.004;2023-01-19T08:48:21;97686.25;;;1.56;73.05
59063;BME280;44851;45.648;9.004;2023-01-19T08:50:47;97686.13;;;1.57;73.71
59063;BME280;44851;45.648;9.004;2023-01-19T08:53:14;97689.41;;;1.70;73.61
59063;BME280;44851;45.648;9.004;2023-01-19T08:55:40;97692.22;;;1.79;73.16
59063;BME280;44851;45.648;9.004;2023-01-19T08:58:06;97698.41;;;1.76;72.41
59063;BME280;44851;45.648;9.004;2023-01-19T09:00:34;97702.16;;;1.83;73.19
59063;BME280;44851;45.648;9.004;2023-01-19T09:03:03;97709.50;;;1.77;73.31
59063;BME280;44851;45.648;9.004;2023-01-19T09:05:33;97711.25;;;1.87;73.63
59063;BME280;44851;45.648;9.004;2023-01-19T09:08:02;97714.25;;;1.70;73.42
59063;BME280;44851;45.648;9.004;2023-01-19T09:10:28;97724.09;;;1.76;72.91
59063;BME280;44851;45.648;9.004;2023-01-19T09:13:01;97716.75;;;1.83;72.30
59063;BME280;44851;45.648;9.004;2023-01-19T09:15:28;97724.31;;;1.84;73.15
59063;BME280;44851;45.648;9.004;2023-01-19T09:17:54;97727.22;;;1.68;71.93
59063;BME280;44851;45.648;9.004;2023-01-19T09:20:19;97730.41;;;1.83;72.46
59063;BME280;44851;45.648;9.004;2023-01-19T09:22:45;97737.31;;;1.94;72.14
59063;BME280;44851;45.648;9.004;2023-01-19T09:25:11;97740.44;;;1.86;72.01
59063;BME280;44851;45.648;9.004;2023-01-19T09:27:37;97738.59;;;1.88;72.54
59063;BME280;44851;45.648;9.004;2023-01-19T09:30:03;97741.38;;;1.85;72.75
59063;BME280;44851;45.648;9.004;2023-01-19T09:32:29;97742.09;;;1.87;72.85
59063;BME280;44851;45.648;9.004;2023-01-19T09:34:54;97745.56;;;1.86;72.36
59063;BME280;44851;45.648;9.004;2023-01-19T09:37:20;97750.00;;;1.73;72.48
59063;BME280;44851;45.648;9.004;2023-01-19T09:39:46;97751.50;;;1.76;72.17
59063;BME280;44851;45.648;9.004;2023-01-19T09:42:42;97754.34;;;1.84;71.90
59063;BME280;44851;45.648;9.004;2023-01-19T09:45:35;97754.47;;;1.82;72.47
59063;BME280;44851;45.648;9.004;2023-01-19T09:50:53;97755.50;;;1.80;73.35
59063;BME280;44851;45.648;9.004;2023-01-19T09:54:10;97760.16;;;1.86;72.99
59063;BME280;44851;45.648;9.004;2023-01-19T09:56:14;97757.50;;;1.99;72.06
59063;BME280;44851;45.648;9.004;2023-01-19T09:58:41;97765.69;;;1.92;72.29
59063;BME280;44851;45.648;9.004;2023-01-19T10:01:48;97763.31;;;1.78;70.87
59063;BME280;44851;45.648;9.004;2023-01-19T10:04:26;97761.38;;;1.93;70.21
59063;BME280;44851;45.648;9.004;2023-01-19T10:06:59;97758.19;;;2.01;70.13
59063;BME280;44851;45.648;9.004;2023-01-19T10:09:34;97759.13;;;2.00;70.28
59063;BME280;44851;45.648;9.004;2023-01-19T10:12:16;97755.06;;;2.08;69.64
59063;BME280;44851;45.648;9.004;2023-01-19T10:14:58;97755.63;;;2.01;70.21
59063;BME280;44851;45.648;9.004;2023-01-19T10:20:01;97755.63;;;2.12;69.78
59063;BME280;44851;45.648;9.004;2023-01-19T10:22:27;97745.81;;;2.28;70.37
59063;BME280;44851;45.648;9.004;2023-01-19T10:24:56;97748.84;;;2.22;69.70
59063;BME280;44851;45.648;9.004;2023-01-19T10:27:27;97753.53;;;2.17;69.54
59063;BME280;44851;45.648;9.004;2023-01-19T10:29:53;97751.56;;;2.20;69.53
59063;BME280;44851;45.648;9.004;2023-01-19T10:32:22;97748.28;;;2.30;69.75
59063;BME280;44851;45.648;9.004;2023-01-19T10:34:49;97750.94;;;2.39;68.16
59063;BME280;44851;45.648;9.004;2023-01-19T10:42:33;97738.81;;;2.30;67.31
59063;BME280;44851;45.648;9.004;2023-01-19T10:44:59;97741.28;;;2.20;68.27
59063;BME280;44851;45.648;9.004;2023-01-19T10:47:33;97736.59;;;2.26;67.32
59063;BME280;44851;45.648;9.004;2023-01-19T10:52:52;97737.16;;;2.52;66.40
59063;BME280;44851;45.648;9.004;2023-01-19T10:55:38;97739.03;;;2.27;65.69
59063;BME280;44851;45.648;9.004;2023-01-19T10:58:06;97729.47;;;2.40;66.61
59063;BME280;44851;45.648;9.004;2023-01-19T11:03:03;97736.69;;;2.46;65.59
59063;BME280;44851;45.648;9.004;2023-01-19T11:05:31;97742.38;;;2.61;64.78
59063;BME280;44851;45.648;9.004;2023-01-19T11:07:57;97738.31;;;2.47;66.50
59063;BME280;44851;45.648;9.004;2023-01-19T11:10:28;97743.47;;;2.47;66.49
59063;BME280;44851;45.648;9.004;2023-01-19T11:13:08;97743.00;;;2.42;66.53
59063;BME280;44851;45.648;9.004;2023-01-19T11:16:27;97739.50;;;2.43;65.35
59063;BME280;44851;45.648;9.004;2023-01-19T11:18:53;97741.69;;;2.48;67.05
59063;BME280;44851;45.648;9.004;2023-01-19T11:21:25;97748.81;;;2.56;67.22
59063;BME280;44851;45.648;9.004;2023-01-19T11:23:55;97745.41;;;2.66;66.81
59063;BME280;44851;45.648;9.004;2023-01-19T11:26:44;97740.19;;;2.57;66.11
59063;BME280;44851;45.648;9.004;2023-01-19T11:29:18;97747.41;;;2.63;67.20
59063;BME280;44851;45.648;9.004;2023-01-19T11:31:44;97744.03;;;2.62;63.68
59063;BME280;44851;45.648;9.004;2023-01-19T11:34:33;97743.22;;;2.62;62.55
59063;BME280;44851;45.648;9.004;2023-01-19T11:37:25;97744.94;;;2.72;60.61
59063;BME280;44851;45.648;9.004;2023-01-19T11:39:54;97745.75;;;2.73;60.58
59063;BME280;44851;45.648;9.004;2023-01-19T11:42:20;97745.25;;;2.79;59.54
59063;BME280;44851;45.648;9.004;2023-01-19T11:45:06;97754.28;;;2.73;59.14
59063;BME280;44851;45.648;9.004;2023-01-19T11:47:43;97757.22;;;2.69;60.14
59063;BME280;44851;45.648;9.004;2023-01-19T11:52:48;97751.81;;;2.83;60.60
59063;BME280;44851;45.648;9.004;2023-01-19T11:57:49;97763.97;;;2.81;61.35
59063;BME280;44851;45.648;9.004;2023-01-19T12:00:26;97761.97;;;2.85;60.45
59063;BME280;44851;45.648;9.004;2023-01-19T12:03:02;97769.25;;;2.80;61.63
59063;BME280;44851;45.648;9.004;2023-01-19T12:05:31;97767.00;;;2.86;61.63
59063;BME280;44851;45.648;9.004;2023-01-19T12:07:59;97756.69;;;2.86;61.73
59063;BME280;44851;45.648;9.004;2023-01-19T12:10:30;97762.34;;;2.80;61.11
59063;BME280;44851;45.648;9.004;2023-01-19T12:12:57;97757.78;;;2.84;61.82
59063;BME280;44851;45.648;9.004;2023-01-19T12:15:41;97757.06;;;2.82;58.84
59063;BME280;44851;45.648;9.004;2023-01-19T12:18:20;97759.31;;;2.75;59.93
59063;BME280;44851;45.648;9.004;2023-01-19T12:20:50;97752.72;;;2.82;60.98
59063;BME280;44851;45.648;9.004;2023-01-19T12:28:38;97748.94;;;2.97;60.96
59063;BME280;44851;45.648;9.004;2023-01-19T12:31:04;97746.50;;;2.96;62.27
59063;BME280;44851;45.648;9.004;2023-01-19T12:33:39;97748.44;;;3.03;61.03
59063;BME280;44851;45.648;9.004;2023-01-19T12:41:34;97747.56;;;2.93;60.78
59063;BME280;44851;45.648;9.004;2023-01-19T12:46:53;97742.66;;;2.90;59.28
59063;BME280;44851;45.648;9.004;2023-01-19T12:49:26;97748.09;;;2.65;60.06
59063;BME280;44851;45.648;9.004;2023-01-19T12:52:10;97737.53;;;2.79;60.67
59063;BME280;44851;45.648;9.004;2023-01-19T12:54:39;97738.00;;;2.84;61.93
59063;BME280;44851;45.648;9.004;2023-01-19T12:57:30;97741.97;;;2.77;62.50
59063;BME280;44851;45.648;9.004;2023-01-19T12:59:59;97743.47;;;2.91;64.17
59063;BME280;44851;45.648;9.004;2023-01-19T13:05:12;97736.94;;;2.87;62.69
59063;BME280;44851;45.648;9.004;2023-01-19T13:13:33;97742.81;;;2.78;64.34
59063;BME280;44851;45.648;9.004;2023-01-19T13:18:47;97740.72;;;2.71;64.34
59063;BME280;44851;45.648;9.004;2023-01-19T13:24:07;97747.28;;;2.64;61.32
59063;BME280;44851;45.648;9.004;2023-01-19T13:26:39;97753.94;;;2.78;62.22
59063;BME280;44851;45.648;9.004;2023-01-19T13:29:17;97754.75;;;2.79;62.48
59063;BME280;44851;45.648;9.004;2023-01-19T13:31:45;97748.75;;;2.89;63.31
59063;BME280;44851;45.648;9.004;2023-01-19T13:34:25;97748.03;;;2.87;62.97
59063;BME280;44851;45.648;9.004;2023-01-19T13:36:54;97746.28;;;2.88;63.28
59063;BME280;44851;45.648;9.004;2023-01-19T13:39:40;97747.38;;;2.74;63.15
59063;BME280;44851;45.648;9.004;2023-01-19T13:42:14;97752.00;;;2.91;63.52
59063;BME280;44851;45.648;9.004;2023-01-19T13:44:46;97752.03;;;2.80;63.98
59063;BME280;44851;45.648;9.004;2023-01-19T13:47:40;97757.91;;;2.71;63.03
59063;BME280;44851;45.648;9.004;2023-01-19T13:50:18;97753.41;;;2.95;62.86
59063;BME280;44851;45.648;9.004;2023-01-19T13:52:44;97762.91;;;2.84;63.68
59063;BME280;44851;45.648;9.004;2023-01-19T13:55:14;97762.75;;;2.96;64.85
59063;BME280;44851;45.648;9.004;2023-01-19T13:57:44;97758.09;;;2.90;64.94
59063;BME280;44851;45.648;9.004;2023-01-19T14:05:32;97765.03;;;2.79;64.99
59063;BME280;44851;45.648;9.004;2023-01-19T14:08:13;97770.16;;;2.90;65.98
59063;BME280;44851;45.648;9.004;2023-01-19T14:13:25;97779.63;;;2.89;66.85
59063;BME280;44851;45.648;9.004;2023-01-19T14:15:56;97772.44;;;3.04;66.27
59063;BME280;44851;45.648;9.004;2023-01-19T14:18:30;97774.13;;;2.94;66.83
59063;BME280;44851;45.648;9.004;2023-01-19T14:24:08;97779.50;;;2.91;65.56
59063;BME280;44851;45.648;9.004;2023-01-19T14:31:42;97781.31;;;3.11;64.28
59063;BME280;44851;45.648;9.004;2023-01-19T14:37:00;97776.56;;;2.95;66.99
59063;BME280;44851;45.648;9.004;2023-01-19T14:39:30;97779.59;;;3.00;66.32
59063;BME280;44851;45.648;9.004;2023-01-19T14:41:59;97781.72;;;2.95;67.30
59063;BME280;44851;45.648;9.004;2023-01-19T14:44:33;97788.44;;;3.08;67.72
59063;BME280;44851;45.648;9.004;2023-01-19T14:47:00;97792.81;;;2.96;65.95
59063;BME280;44851;45.648;9.004;2023-01-19T14:49:30;97796.19;;;3.08;66.06
59063;BME280;44851;45.648;9.004;2023-01-19T14:51:57;97799.47;;;3.10;65.49
59063;BME280;44851;45.648;9.004;2023-01-19T14:54:35;97804.34;;;3.13;63.89